sensor_id;sensor_type;location;lat;lon;timestamp;pressure;altitude;pressure_sealevel;temperature;humidity
5284;BME280;15377;48.540;9.268;2024-03-06T00:01:33;97494.13;;;6.26;100.00
5284;BME280;15377;48.540;9.268;2024-03-06T00:03:59;97499.59;;;6.26;100.00
5284;BME280;15377;48.540;9.268;2024-03-06T00:06:24;97494.25;;;6.22;100.00
5284;BME280;15377;48.540;9.268;2024-03-06T00:08:50;97486.47;;;6.21;100.00
5284;BME280;15377;48.540;9.268;2024-03-06T00:11:15;97496.63;;;6.20;100.00
5284;BME280;15377;48.540;9.268;2024-03-06T00:13:41;97503.63;;;6.21;100.00
5284;BME280;15377;48.540;9.268;2024-03-06T00:16:06;97501.34;;;6.20;100.00
5284;BME280;15377;48.540;9.268;2024-03-06T00:18:31;97501.34;;;6.20;100.00
5284;BME280;15377;48.540;9.268;2024-03-06T00:20:57;97499.06;;;6.18;100.00
5284;BME280;15377;48.540;9.268;2024-03-06T00:23:22;97495.88;;;6.20;100.00
5284;BME280;15377;48.540;9.268;2024-03-06T00:25:48;97484.75;;;6.14;100.00
5284;BME280;15377;48.540;9.268;2024-03-06T00:28:13;97488.91;;;6.19;100.00
5284;BME280;15377;48.540;9.268;2024-03-06T00:30:38;97482.44;;;6.13;100.00
5284;BME280;15377;48.540;9.268;2024-03-06T00:33:04;97495.56;;;6.18;100.00
5284;BME280;15377;48.540;9.268;2024-03-06T00:35:29;97488.56;;;6.17;100.00
5284;BME280;15377;48.540;9.268;2024-03-06T00:37:54;97494.00;;;6.17;100.00
5284;BME280;15377;48.540;9.268;2024-03-06T00:40:20;97486.06;;;6.10;100.00
5284;BME280;15377;48.540;9.268;2024-03-06T00:42:45;97493.06;;;6.11;100.00
5284;BME280;15377;48.540;9.268;2024-03-06T00:45:11;97502.47;;;6.10;100.00
5284;BME280;15377;48.540;9.268;2024-03-06T00:47:37;97507.16;;;6.09;100.00
5284;BME280;15377;48.540;9.268;2024-03-06T00:50:02;97510.19;;;6.11;100.00
5284;BME280;15377;48.540;9.268;2024-03-06T00:52:28;97497.75;;;6.10;100.00
5284;BME280;15377;48.540;9.268;2024-03-06T00:54:53;97493.06;;;6.11;100.00
5284;BME280;15377;48.540;9.268;2024-03-06T00:57:19;97503.75;;;6.05;100.00
5284;BME280;15377;48.540;9.268;2024-03-06T00:59:44;97498.56;;;5.98;100.00
5284;BME280;15377;48.540;9.268;2024-03-06T01:02:09;97504.97;;;5.92;100.00
5284;BME280;15377;48.540;9.268;2024-03-06T01:04:35;97500.72;;;5.91;100.00
5284;BME280;15377;48.540;9.268;2024-03-06T01:07:00;97500.50;;;5.85;100.00
5284;BME280;15377;48.540;9.268;2024-03-06T01:09:26;97488.50;;;5.83;100.00
5284;BME280;15377;48.540;9.268;2024-03-06T01:11:52;97499.09;;;5.81;100.00
5284;BME280;15377;48.540;9.268;2024-03-06T01:14:17;97488.69;;;5.76;100.00
5284;BME280;15377;48.540;9.268;2024-03-06T01:16:43;97496.38;;;5.81;100.00
5284;BME280;15377;48.540;9.268;2024-03-06T01:19:08;97485.94;;;5.76;100.00
5284;BME280;15377;48.540;9.268;2024-03-06T01:21:34;97487.16;;;5.75;100.00
5284;BME280;15377;48.540;9.268;2024-03-06T01:24:02;97493.28;;;5.79;100.00
5284;BME280;15377;48.540;9.268;2024-03-06T01:26:28;97494.84;;;5.80;100.00
5284;BME280;15377;48.540;9.268;2024-03-06T01:28:54;97501.47;;;5.79;100.00
5284;BME280;15377;48.540;9.268;2024-03-06T01:31:19;97497.13;;;5.81;100.00
5284;BME280;15377;48.540;9.268;2024-03-06T01:33:44;97497.19;;;5.78;100.00
5284;BME280;15377;48.540;9.268;2024-03-06T01:36:10;97489.38;;;5.80;100.00
5284;BME280;15377;48.540;9.268;2024-03-06T01:38:35;97494.91;;;5.76;100.00
5284;BME280;15377;48.540;9.268;2024-03-06T01:41:00;97496.97;;;5.72;100.00
5284;BME280;15377;48.540;9.268;2024-03-06T01:43:27;97501.69;;;5.72;100.00
5284;BME280;15377;48.540;9.268;2024-03-06T01:45:52;97505.75;;;5.67;100.00
5284;BME280;15377;48.540;9.268;2024-03-06T01:48:26;97505.06;;;5.76;100.00
5284;BME280;15377;48.540;9.268;2024-03-06T01:50:56;97504.22;;;5.79;100.00
5284;BME280;15377;48.540;9.268;2024-03-06T01:53:23;97498.09;;;5.75;100.00
5284;BME280;15377;48.540;9.268;2024-03-06T01:55:50;97502.22;;;5.67;100.00
5284;BME280;15377;48.540;9.268;2024-03-06T01:58:15;97506.59;;;5.64;100.00
5284;BME280;15377;48.540;9.268;2024-03-06T02:00:41;97506.91;;;5.66;100.00
5284;BME280;15377;48.540;9.268;2024-03-06T02:03:07;97506.59;;;5.64;100.00
5284;BME280;15377;48.540;9.268;2024-03-06T02:05:32;97504.19;;;5.66;100.00
5284;BME280;15377;48.540;9.268;2024-03-06T02:07:58;97492.19;;;5.64;100.00
5284;BME280;15377;48.540;9.268;2024-03-06T02:10:27;97499.41;;;5.70;100.00
5284;BME280;15377;48.540;9.268;2024-03-06T02:12:54;97487.94;;;5.63;100.00
5284;BME280;15377;48.540;9.268;2024-03-06T02:15:19;97496.88;;;5.63;100.00
5284;BME280;15377;48.540;9.268;2024-03-06T02:17:45;97496.56;;;5.61;100.00
5284;BME280;15377;48.540;9.268;2024-03-06T02:20:11;97490.31;;;5.61;100.00
5284;BME280;15377;48.540;9.268;2024-03-06T02:22:39;97489.13;;;5.62;100.00
5284;BME280;15377;48.540;9.268;2024-03-06T02:25:06;97491.84;;;5.62;100.00
5284;BME280;15377;48.540;9.268;2024-03-06T02:27:31;97491.84;;;5.62;100.00
5284;BME280;15377;48.540;9.268;2024-03-06T02:29:57;97484.13;;;5.60;100.00
5284;BME280;15377;48.540;9.268;2024-03-06T02:32:23;97501.59;;;5.63;100.00
5284;BME280;15377;48.540;9.268;2024-03-06T02:34:49;97495.13;;;5.57;100.00
5284;BME280;15377;48.540;9.268;2024-03-06T02:37:15;97493.06;;;5.61;100.00
5284;BME280;15377;48.540;9.268;2024-03-06T02:39:40;97505.50;;;5.62;100.00
5284;BME280;15377;48.540;9.268;2024-03-06T02:42:06;97505.50;;;5.62;100.00
5284;BME280;15377;48.540;9.268;2024-03-06T02:44:32;97503.97;;;5.61;100.00
5284;BME280;15377;48.540;9.268;2024-03-06T02:46:58;97503.97;;;5.61;100.00
5284;BME280;15377;48.540;9.268;2024-03-06T02:49:23;97495.47;;;5.59;100.00
5284;BME280;15377;48.540;9.268;2024-03-06T02:51:49;97499.94;;;5.53;100.00
5284;BME280;15377;48.540;9.268;2024-03-06T02:54:14;97498.72;;;5.54;100.00
5284;BME280;15377;48.540;9.268;2024-03-06T02:56:39;97503.44;;;5.53;100.00
5284;BME280;15377;48.540;9.268;2024-03-06T02:59:05;97501.91;;;5.52;100.00
5284;BME280;15377;48.540;9.268;2024-03-06T03:01:30;97504.19;;;5.54;100.00
5284;BME280;15377;48.540;9.268;2024-03-06T03:03:57;97506.38;;;5.59;100.00
5284;BME280;15377;48.540;9.268;2024-03-06T03:06:23;97499.06;;;5.56;100.00
5284;BME280;15377;48.540;9.268;2024-03-06T03:08:51;97503.00;;;5.55;100.00
5284;BME280;15377;48.540;9.268;2024-03-06T03:11:16;97510.84;;;5.53;100.00
5284;BME280;15377;48.540;9.268;2024-03-06T03:13:41;97507.25;;;5.56;100.00
5284;BME280;15377;48.540;9.268;2024-03-06T03:16:14;97511.06;;;5.58;100.00
5284;BME280;15377;48.540;9.268;2024-03-06T03:18:40;97505.59;;;5.58;100.00
5284;BME280;15377;48.540;9.268;2024-03-06T03:21:08;97508.31;;;5.58;100.00
5284;BME280;15377;48.540;9.268;2024-03-06T03:23:36;97503.97;;;5.61;100.00
5284;BME280;15377;48.540;9.268;2024-03-06T03:26:01;97512.16;;;5.61;100.00
5284;BME280;15377;48.540;9.268;2024-03-06T03:28:29;97514.88;;;5.61;100.00
5284;BME280;15377;48.540;9.268;2024-03-06T03:30:54;97517.97;;;5.63;100.00
5284;BME280;15377;48.540;9.268;2024-03-06T03:33:20;97518.81;;;5.60;100.00
5284;BME280;15377;48.540;9.268;2024-03-06T03:35:45;97517.09;;;5.66;100.00
5284;BME280;15377;48.540;9.268;2024-03-06T03:38:10;97511.84;;;5.59;100.00
5284;BME280;15377;48.540;9.268;2024-03-06T03:40:36;97520.91;;;5.68;100.00
5284;BME280;15377;48.540;9.268;2024-03-06T03:43:01;97519.38;;;5.67;100.00
5284;BME280;15377;48.540;9.268;2024-03-06T03:45:32;97509.78;;;5.63;100.00
5284;BME280;15377;48.540;9.268;2024-03-06T03:47:59;97526.38;;;5.68;100.00
5284;BME280;15377;48.540;9.268;2024-03-06T03:50:25;97518.59;;;5.67;100.00
5284;BME280;15377;48.540;9.268;2024-03-06T03:52:50;97524.19;;;5.63;100.00
5284;BME280;15377;48.540;9.268;2024-03-06T03:55:15;97521.88;;;5.62;100.00
5284;BME280;15377;48.540;9.268;2024-03-06T03:57:41;97526.69;;;5.58;100.00
5284;BME280;15377;48.540;9.268;2024-03-06T04:00:06;97528.22;;;5.59;100.00
5284;BME280;15377;48.540;9.268;2024-03-06T04:02:36;97528.22;;;5.59;100.00
5284;BME280;15377;48.540;9.268;2024-03-06T04:05:02;97534.78;;;5.61;100.00
5284;BME280;15377;48.540;9.268;2024-03-06T04:07:27;97520.34;;;5.61;100.00
5284;BME280;15377;48.540;9.268;2024-03-06T04:09:53;97529.41;;;5.58;100.00
5284;BME280;15377;48.540;9.268;2024-03-06T04:12:18;97527.00;;;5.60;100.00
5284;BME280;15377;48.540;9.268;2024-03-06T04:14:44;97544.59;;;5.59;100.00
5284;BME280;15377;48.540;9.268;2024-03-06T04:17:09;97543.06;;;5.58;100.00
5284;BME280;15377;48.540;9.268;2024-03-06T04:19:35;97544.59;;;5.59;100.00
5284;BME280;15377;48.540;9.268;2024-03-06T04:22:00;97534.66;;;5.52;100.00
5284;BME280;15377;48.540;9.268;2024-03-06T04:24:25;97543.94;;;5.55;100.00
5284;BME280;15377;48.540;9.268;2024-03-06T04:26:51;97547.09;;;5.53;100.00
5284;BME280;15377;48.540;9.268;2024-03-06T04:29:17;97550.16;;;5.55;100.00
5284;BME280;15377;48.540;9.268;2024-03-06T04:31:42;97547.44;;;5.55;100.00
5284;BME280;15377;48.540;9.268;2024-03-06T04:34:18;97548.72;;;5.51;100.00
5284;BME280;15377;48.540;9.268;2024-03-06T04:36:45;97556.50;;;5.52;100.00
5284;BME280;15377;48.540;9.268;2024-03-06T04:39:10;97562.28;;;5.54;100.00
5284;BME280;15377;48.540;9.268;2024-03-06T04:41:37;97558.78;;;5.54;100.00
5284;BME280;15377;48.540;9.268;2024-03-06T04:44:02;97555.72;;;5.52;100.00
5284;BME280;15377;48.540;9.268;2024-03-06T04:46:28;97558.03;;;5.53;100.00
5284;BME280;15377;48.540;9.268;2024-03-06T04:48:53;97570.03;;;5.56;100.00
5284;BME280;15377;48.540;9.268;2024-03-06T04:51:18;97571.25;;;5.55;100.00
5284;BME280;15377;48.540;9.268;2024-03-06T04:53:47;97572.00;;;5.55;100.00
5284;BME280;15377;48.540;9.268;2024-03-06T04:56:13;97567.72;;;5.54;100.00
5284;BME280;15377;48.540;9.268;2024-03-06T04:58:40;97583.22;;;5.57;100.00
5284;BME280;15377;48.540;9.268;2024-03-06T05:01:05;97576.69;;;5.55;100.00
5284;BME280;15377;48.540;9.268;2024-03-06T05:03:30;97576.69;;;5.55;100.00
5284;BME280;15377;48.540;9.268;2024-03-06T05:05:56;97581.38;;;5.54;100.00
5284;BME280;15377;48.540;9.268;2024-03-06T05:08:21;97586.28;;;5.47;100.00
5284;BME280;15377;48.540;9.268;2024-03-06T05:10:46;97590.88;;;5.50;100.00
5284;BME280;15377;48.540;9.268;2024-03-06T05:13:12;97591.06;;;5.43;100.00
5284;BME280;15377;48.540;9.268;2024-03-06T05:15:37;97595.31;;;5.44;100.00
5284;BME280;15377;48.540;9.268;2024-03-06T05:18:04;97588.00;;;5.41;100.00
5284;BME280;15377;48.540;9.268;2024-03-06T05:20:30;97591.25;;;5.36;100.00
5284;BME280;15377;48.540;9.268;2024-03-06T05:22:58;97585.06;;;5.35;100.00
5284;BME280;15377;48.540;9.268;2024-03-06T05:25:23;97587.34;;;5.37;100.00
5284;BME280;15377;48.540;9.268;2024-03-06T05:27:50;97593.13;;;5.39;100.00
5284;BME280;15377;48.540;9.268;2024-03-06T05:30:15;97592.59;;;5.44;100.00
5284;BME280;15377;48.540;9.268;2024-03-06T05:32:40;97590.28;;;5.42;100.00
5284;BME280;15377;48.540;9.268;2024-03-06T05:35:07;97596.53;;;5.43;100.00
5284;BME280;15377;48.540;9.268;2024-03-06T05:37:35;97601.13;;;5.46;100.00
5284;BME280;15377;48.540;9.268;2024-03-06T05:40:00;97600.78;;;5.44;100.00
5284;BME280;15377;48.540;9.268;2024-03-06T05:42:26;97608.97;;;5.44;100.00
5284;BME280;15377;48.540;9.268;2024-03-06T05:44:51;97605.13;;;5.41;100.00
5284;BME280;15377;48.540;9.268;2024-03-06T05:47:19;97608.97;;;5.44;100.00
5284;BME280;15377;48.540;9.268;2024-03-06T05:49:45;97607.53;;;5.39;100.00
5284;BME280;15377;48.540;9.268;2024-03-06T05:52:10;97604.38;;;5.41;100.00
5284;BME280;15377;48.540;9.268;2024-03-06T05:54:36;97617.47;;;5.46;100.00
5284;BME280;15377;48.540;9.268;2024-03-06T05:57:02;97616.84;;;5.42;100.00
5284;BME280;15377;48.540;9.268;2024-03-06T05:59:28;97618.47;;;5.39;100.00
5284;BME280;15377;48.540;9.268;2024-03-06T06:01:54;97626.03;;;5.48;100.00
5284;BME280;15377;48.540;9.268;2024-03-06T06:04:20;97635.28;;;5.50;100.00
5284;BME280;15377;48.540;9.268;2024-03-06T06:06:45;97631.47;;;5.48;100.00
5284;BME280;15377;48.540;9.268;2024-03-06T06:09:10;97646.56;;;5.52;100.00
5284;BME280;15377;48.540;9.268;2024-03-06T06:11:41;97634.53;;;5.50;100.00
5284;BME280;15377;48.540;9.268;2024-03-06T06:14:06;97635.28;;;5.50;100.00
5284;BME280;15377;48.540;9.268;2024-03-06T06:16:36;97643.06;;;5.52;100.00
5284;BME280;15377;48.540;9.268;2024-03-06T06:19:02;97640.41;;;5.48;100.00
5284;BME280;15377;48.540;9.268;2024-03-06T06:21:28;97635.28;;;5.50;100.00
5284;BME280;15377;48.540;9.268;2024-03-06T06:23:53;97649.28;;;5.52;100.00
5284;BME280;15377;48.540;9.268;2024-03-06T06:26:19;97648.84;;;5.54;100.00
5284;BME280;15377;48.540;9.268;2024-03-06T06:28:45;97652.25;;;5.58;100.00
5284;BME280;15377;48.540;9.268;2024-03-06T06:31:11;97656.00;;;5.64;100.00
5284;BME280;15377;48.540;9.268;2024-03-06T06:33:37;97654.47;;;5.63;100.00
5284;BME280;15377;48.540;9.268;2024-03-06T06:36:02;97652.91;;;5.62;100.00
5284;BME280;15377;48.540;9.268;2024-03-06T06:38:27;97661.00;;;5.65;100.00
5284;BME280;15377;48.540;9.268;2024-03-06T06:40:53;97662.09;;;5.68;100.00
5284;BME280;15377;48.540;9.268;2024-03-06T06:43:18;97663.97;;;5.71;100.00
5284;BME280;15377;48.540;9.268;2024-03-06T06:45:43;97661.25;;;5.71;100.00
5284;BME280;15377;48.540;9.268;2024-03-06T06:48:09;97661.34;;;5.67;100.00
5284;BME280;15377;48.540;9.268;2024-03-06T06:50:35;97654.56;;;5.59;100.00
5284;BME280;15377;48.540;9.268;2024-03-06T06:53:00;97661.34;;;5.67;100.00
5284;BME280;15377;48.540;9.268;2024-03-06T06:55:26;97666.59;;;5.74;100.00
5284;BME280;15377;48.540;9.268;2024-03-06T06:57:51;97665.84;;;5.74;100.00
5284;BME280;15377;48.540;9.268;2024-03-06T07:00:17;97672.72;;;5.78;100.00
5284;BME280;15377;48.540;9.268;2024-03-06T07:02:44;97671.94;;;5.78;100.00
5284;BME280;15377;48.540;9.268;2024-03-06T07:05:10;97672.34;;;5.80;100.00
5284;BME280;15377;48.540;9.268;2024-03-06T07:07:36;97678.97;;;5.79;100.00
5284;BME280;15377;48.540;9.268;2024-03-06T07:10:03;97667.69;;;5.77;100.00
5284;BME280;15377;48.540;9.268;2024-03-06T07:12:29;97678.53;;;5.80;100.00
5284;BME280;15377;48.540;9.268;2024-03-06T07:14:54;97679.75;;;5.79;100.00
5284;BME280;15377;48.540;9.268;2024-03-06T07:17:20;97675.22;;;5.73;100.00
5284;BME280;15377;48.540;9.268;2024-03-06T07:19:45;97666.16;;;5.76;100.00
5284;BME280;15377;48.540;9.268;2024-03-06T07:22:11;97680.53;;;5.80;100.00
5284;BME280;15377;48.540;9.268;2024-03-06T07:24:36;97681.19;;;5.84;100.00
5284;BME280;15377;48.540;9.268;2024-03-06T07:27:02;97677.25;;;5.85;100.00
5284;BME280;15377;48.540;9.268;2024-03-06T07:29:28;97688.84;;;5.89;100.00
5284;BME280;15377;48.540;9.268;2024-03-06T07:31:53;97690.91;;;5.85;100.00
5284;BME280;15377;48.540;9.268;2024-03-06T07:34:21;97697.03;;;5.89;100.00
5284;BME280;15377;48.540;9.268;2024-03-06T07:36:47;97691.16;;;5.90;100.00
5284;BME280;15377;48.540;9.268;2024-03-06T07:39:15;97692.22;;;5.93;100.00
5284;BME280;15377;48.540;9.268;2024-03-06T07:41:41;97692.47;;;5.98;100.00
5284;BME280;15377;48.540;9.268;2024-03-06T07:44:07;97691.91;;;6.03;100.00
5284;BME280;15377;48.540;9.268;2024-03-06T07:46:34;97695.75;;;6.06;100.00
5284;BME280;15377;48.540;9.268;2024-03-06T07:49:00;97694.56;;;6.07;100.00
5284;BME280;15377;48.540;9.268;2024-03-06T07:51:25;97703.06;;;6.09;100.00
5284;BME280;15377;48.540;9.268;2024-03-06T07:53:51;97697.50;;;6.12;100.00
5284;BME280;15377;48.540;9.268;2024-03-06T07:56:17;97713.78;;;6.16;100.00
5284;BME280;15377;48.540;9.268;2024-03-06T07:58:43;97702.13;;;6.15;100.00
5284;BME280;15377;48.540;9.268;2024-03-06T08:01:08;97707.69;;;6.12;100.00
5284;BME280;15377;48.540;9.268;2024-03-06T08:03:34;97702.44;;;6.05;100.00
5284;BME280;15377;48.540;9.268;2024-03-06T08:05:59;97712.47;;;6.08;100.00
5284;BME280;15377;48.540;9.268;2024-03-06T08:08:25;97718.13;;;6.01;100.00
5284;BME280;15377;48.540;9.268;2024-03-06T08:10:50;97714.97;;;6.02;100.00
5284;BME280;15377;48.540;9.268;2024-03-06T08:13:16;97719.38;;;6.12;100.00
5284;BME280;15377;48.540;9.268;2024-03-06T08:15:44;97707.69;;;6.12;100.00
5284;BME280;15377;48.540;9.268;2024-03-06T08:18:09;97717.31;;;6.16;100.00
5284;BME280;15377;48.540;9.268;2024-03-06T08:20:35;97728.56;;;6.18;100.00
5284;BME280;15377;48.540;9.268;2024-03-06T08:23:01;97722.78;;;6.16;100.00
5284;BME280;15377;48.540;9.268;2024-03-06T08:25:26;97719.25;;;6.16;100.00
5284;BME280;15377;48.540;9.268;2024-03-06T08:27:51;97707.47;;;6.19;100.00
5284;BME280;15377;48.540;9.268;2024-03-06T08:30:17;97720.84;;;6.42;100.00
5284;BME280;15377;48.540;9.268;2024-03-06T08:32:42;97709.91;;;6.42;100.00
5284;BME280;15377;48.540;9.268;2024-03-06T08:35:10;97723.69;;;6.51;100.00
5284;BME280;15377;48.540;9.268;2024-03-06T08:37:39;97724.00;;;6.40;100.00
5284;BME280;15377;48.540;9.268;2024-03-06T08:40:06;97729.91;;;6.39;100.00
5284;BME280;15377;48.540;9.268;2024-03-06T08:42:32;97730.22;;;6.41;100.00
5284;BME280;15377;48.540;9.268;2024-03-06T08:44:58;97727.16;;;6.39;100.00
5284;BME280;15377;48.540;9.268;2024-03-06T08:47:23;97728.47;;;6.47;100.00
5284;BME280;15377;48.540;9.268;2024-03-06T08:49:49;97725.31;;;6.48;100.00
5284;BME280;15377;48.540;9.268;2024-03-06T08:52:15;97729.59;;;6.49;100.00
5284;BME280;15377;48.540;9.268;2024-03-06T08:54:40;97733.09;;;6.50;100.00
5284;BME280;15377;48.540;9.268;2024-03-06T08:57:06;97730.91;;;6.45;100.00
5284;BME280;15377;48.540;9.268;2024-03-06T08:59:33;97736.59;;;6.50;100.00
5284;BME280;15377;48.540;9.268;2024-03-06T09:02:17;97732.31;;;6.49;100.00
5284;BME280;15377;48.540;9.268;2024-03-06T09:04:44;97742.47;;;6.49;100.00
5284;BME280;15377;48.540;9.268;2024-03-06T09:07:10;97739.53;;;6.56;100.00
5284;BME280;15377;48.540;9.268;2024-03-06T09:09:36;97743.47;;;6.67;100.00
5284;BME280;15377;48.540;9.268;2024-03-06T09:12:05;97746.56;;;6.82;100.00
5284;BME280;15377;48.540;9.268;2024-03-06T09:14:34;97743.25;;;6.87;100.00
5284;BME280;15377;48.540;9.268;2024-03-06T09:17:00;97751.81;;;6.89;100.00
5284;BME280;15377;48.540;9.268;2024-03-06T09:19:26;97749.94;;;6.86;100.00
5284;BME280;15377;48.540;9.268;2024-03-06T09:21:51;97749.19;;;6.85;100.00
5284;BME280;15377;48.540;9.268;2024-03-06T09:24:17;97749.94;;;6.86;100.00
5284;BME280;15377;48.540;9.268;2024-03-06T09:26:43;97757.59;;;6.91;100.00
5284;BME280;15377;48.540;9.268;2024-03-06T09:29:09;97758.25;;;6.95;100.00
5284;BME280;15377;48.540;9.268;2024-03-06T09:31:35;97757.59;;;6.91;100.00
5284;BME280;15377;48.540;9.268;2024-03-06T09:34:02;97764.28;;;6.90;100.00
5284;BME280;15377;48.540;9.268;2024-03-06T09:36:27;97762.97;;;6.82;100.00
5284;BME280;15377;48.540;9.268;2024-03-06T09:38:52;97768.66;;;6.87;100.00
5284;BME280;15377;48.540;9.268;2024-03-06T09:41:18;97768.75;;;6.84;100.00
5284;BME280;15377;48.540;9.268;2024-03-06T09:43:44;97769.41;;;6.88;100.00
5284;BME280;15377;48.540;9.268;2024-03-06T09:46:10;97768.66;;;6.87;100.00
5284;BME280;15377;48.540;9.268;2024-03-06T09:48:35;97773.69;;;6.89;100.00
5284;BME280;15377;48.540;9.268;2024-03-06T09:51:01;97766.13;;;6.93;100.00
5284;BME280;15377;48.540;9.268;2024-03-06T09:53:27;97757.91;;;6.93;100.00
5284;BME280;15377;48.540;9.268;2024-03-06T09:55:53;97765.91;;;7.00;100.00
5284;BME280;15377;48.540;9.268;2024-03-06T09:58:19;97762.75;;;7.01;100.00
5284;BME280;15377;48.540;9.268;2024-03-06T10:00:46;97769.94;;;7.07;100.00
5284;BME280;15377;48.540;9.268;2024-03-06T10:03:13;97773.56;;;7.05;100.00
5284;BME280;15377;48.540;9.268;2024-03-06T10:05:38;97778.28;;;7.04;100.00
5284;BME280;15377;48.540;9.268;2024-03-06T10:08:04;97776.97;;;6.96;100.00
5284;BME280;15377;48.540;9.268;2024-03-06T10:10:30;97777.84;;;6.93;100.00
5284;BME280;15377;48.540;9.268;2024-03-06T10:12:56;97785.81;;;7.00;100.00
5284;BME280;15377;48.540;9.268;2024-03-06T10:15:22;97783.22;;;6.97;100.00
5284;BME280;15377;48.540;9.268;2024-03-06T10:17:48;97757.72;;;6.75;100.00
5284;BME280;15377;48.540;9.268;2024-03-06T10:20:23;97779.16;;;6.89;100.00
5284;BME280;15377;48.540;9.268;2024-03-06T10:22:53;97784.06;;;6.94;100.00
5284;BME280;15377;48.540;9.268;2024-03-06T10:25:23;97788.13;;;7.02;100.00
5284;BME280;15377;48.540;9.268;2024-03-06T10:28:04;97788.22;;;7.10;100.00
5284;BME280;15377;48.540;9.268;2024-03-06T10:30:34;97781.09;;;7.13;100.00
5284;BME280;15377;48.540;9.268;2024-03-06T10:33:04;97789.75;;;7.11;100.00
5284;BME280;15377;48.540;9.268;2024-03-06T10:35:33;97782.75;;;7.10;100.00
5284;BME280;15377;48.540;9.268;2024-03-06T10:38:01;97784.03;;;7.18;100.00
5284;BME280;15377;48.540;9.268;2024-03-06T10:40:33;97787.88;;;7.21;100.00
5284;BME280;15377;48.540;9.268;2024-03-06T10:43:00;97782.75;;;7.10;100.00
5284;BME280;15377;48.540;9.268;2024-03-06T10:45:39;97783.19;;;7.09;100.00
5284;BME280;15377;48.540;9.268;2024-03-06T10:48:07;97786.03;;;7.06;100.00
5284;BME280;15377;48.540;9.268;2024-03-06T10:50:33;97778.38;;;7.01;100.00
5284;BME280;15377;48.540;9.268;2024-03-06T10:52:59;97788.31;;;7.07;100.00
5284;BME280;15377;48.540;9.268;2024-03-06T10:55:27;97792.81;;;7.13;100.00
5284;BME280;15377;48.540;9.268;2024-03-06T10:57:54;97783.53;;;7.11;100.00
5284;BME280;15377;48.540;9.268;2024-03-06T11:00:22;97784.41;;;7.08;100.00
5284;BME280;15377;48.540;9.268;2024-03-06T11:02:48;97794.34;;;7.14;100.00
5284;BME280;15377;48.540;9.268;2024-03-06T11:05:16;97788.22;;;7.10;100.00
5284;BME280;15377;48.540;9.268;2024-03-06T11:07:42;97793.91;;;7.03;100.00
5284;BME280;15377;48.540;9.268;2024-03-06T11:10:09;97792.38;;;7.03;100.00
5284;BME280;15377;48.540;9.268;2024-03-06T11:12:41;97790.84;;;7.02;100.00
5284;BME280;15377;48.540;9.268;2024-03-06T11:15:14;97793.59;;;7.02;100.00
5284;BME280;15377;48.540;9.268;2024-03-06T11:17:39;97796.53;;;6.95;100.00
5284;BME280;15377;48.540;9.268;2024-03-06T11:28:18;97806.84;;;6.91;100.00
5284;BME280;15377;48.540;9.268;2024-03-06T11:30:45;97804.22;;;6.87;100.00
5284;BME280;15377;48.540;9.268;2024-03-06T11:33:12;97805.63;;;6.79;100.00
5284;BME280;15377;48.540;9.268;2024-03-06T11:35:41;97804.75;;;6.70;100.00
5284;BME280;15377;48.540;9.268;2024-03-06T11:38:09;97807.25;;;6.77;100.00
5284;BME280;15377;48.540;9.268;2024-03-06T11:40:42;97799.59;;;6.72;100.00
5284;BME280;15377;48.540;9.268;2024-03-06T11:43:26;97812.63;;;6.80;100.00
5284;BME280;15377;48.540;9.268;2024-03-06T11:45:52;97811.00;;;6.83;100.00
5284;BME280;15377;48.540;9.268;2024-03-06T11:48:18;97805.41;;;6.86;100.00
5284;BME280;15377;48.540;9.268;2024-03-06T11:50:45;97809.91;;;6.93;100.00
5284;BME280;15377;48.540;9.268;2024-03-06T11:53:12;97806.53;;;7.01;100.00
5284;BME280;15377;48.540;9.268;2024-03-06T11:55:38;97805.53;;;7.07;100.00
5284;BME280;15377;48.540;9.268;2024-03-06T11:58:03;97799.41;;;7.16;100.00
5284;BME280;15377;48.540;9.268;2024-03-06T12:00:30;97800.47;;;7.18;100.00
5284;BME280;15377;48.540;9.268;2024-03-06T12:02:55;97803.06;;;7.34;100.00
5284;BME280;15377;48.540;9.268;2024-03-06T12:05:22;97792.78;;;7.38;100.00
5284;BME280;15377;48.540;9.268;2024-03-06T12:07:49;97798.59;;;7.40;100.00
5284;BME280;15377;48.540;9.268;2024-03-06T12:10:16;97805.16;;;7.43;100.00
5284;BME280;15377;48.540;9.268;2024-03-06T12:12:42;97801.88;;;7.48;100.00
5284;BME280;15377;48.540;9.268;2024-03-06T12:15:11;97800.84;;;7.54;100.00
5284;BME280;15377;48.540;9.268;2024-03-06T12:17:47;97795.25;;;7.58;100.00
5284;BME280;15377;48.540;9.268;2024-03-06T12:20:14;97792.84;;;7.60;100.00
5284;BME280;15377;48.540;9.268;2024-03-06T12:22:53;97799.50;;;7.71;100.00
5284;BME280;15377;48.540;9.268;2024-03-06T12:25:22;97795.31;;;7.79;100.00
5284;BME280;15377;48.540;9.268;2024-03-06T12:27:48;97807.66;;;7.84;100.00
5284;BME280;15377;48.540;9.268;2024-03-06T12:30:21;97795.06;;;7.86;100.00
5284;BME280;15377;48.540;9.268;2024-03-06T12:33:00;97795.97;;;7.83;100.00
5284;BME280;15377;48.540;9.268;2024-03-06T12:35:29;97807.34;;;7.82;100.00
5284;BME280;15377;48.540;9.268;2024-03-06T12:37:55;97805.63;;;7.75;100.00
5284;BME280;15377;48.540;9.268;2024-03-06T12:40:21;97804.56;;;7.60;100.00
5284;BME280;15377;48.540;9.268;2024-03-06T12:42:47;97812.72;;;7.51;100.00
5284;BME280;15377;48.540;9.268;2024-03-06T12:45:14;97798.47;;;7.44;100.00
5284;BME280;15377;48.540;9.268;2024-03-06T12:47:41;97805.16;;;7.43;100.00
5284;BME280;15377;48.540;9.268;2024-03-06T12:50:07;97799.69;;;7.43;100.00
5284;BME280;15377;48.540;9.268;2024-03-06T12:52:34;97800.03;;;7.32;100.00
5284;BME280;15377;48.540;9.268;2024-03-06T12:55:00;97800.56;;;7.40;100.00
5284;BME280;15377;48.540;9.268;2024-03-06T12:57:25;97799.69;;;7.43;100.00
5284;BME280;15377;48.540;9.268;2024-03-06T12:59:51;97792.69;;;7.42;100.00
5284;BME280;15377;48.540;9.268;2024-03-06T13:02:16;97807.34;;;7.48;100.00
5284;BME280;15377;48.540;9.268;2024-03-06T13:04:41;97798.66;;;7.49;100.00
5284;BME280;15377;48.540;9.268;2024-03-06T13:07:07;97801.97;;;7.44;100.00
5284;BME280;15377;48.540;9.268;2024-03-06T13:09:32;97794.09;;;7.46;100.00
5284;BME280;15377;48.540;9.268;2024-03-06T13:11:57;97788.84;;;7.39;100.00
5284;BME280;15377;48.540;9.268;2024-03-06T13:14:23;97795.41;;;7.42;100.00